Time;durP1;ratioP1;P1;durP2;ratioP2;P2;SDS_P1;SDS_P2;PMS_P1;PMS_P2;Temp;Humidity;BMP_temperature;BMP_pressure;BME280_temperature;BME280_humidity;BME280_pressure;Samples;Min_cycle;Max_cycle;Signal;HPM_P1;HPM_P2
2021/03/25 00:01:15;;;;;;;33.88;22.35;;;5.30;99.60;;;;;;5086769;28;20051;-69
2021/03/25 00:03:42;;;;;;;38.38;23.98;;;5.30;99.90;;;;;;5086689;28;20451;-69
2021/03/25 00:06:08;;;;;;;37.63;23.00;;;5.40;99.90;;;;;;5087437;28;20044;-69
2021/03/25 00:08:34;;;;;;;31.65;20.55;;;5.30;99.50;;;;;;5087370;28;20424;-69
2021/03/25 00:11:00;;;;;;;34.75;22.52;;;5.20;99.20;;;;;;5086222;28;20136;-69
2021/03/25 00:13:27;;;;;;;34.53;22.08;;;5.00;98.80;;;;;;5086574;28;20051;-69
2021/03/25 00:15:53;;;;;;;39.05;23.75;;;4.90;99.20;;;;;;5087353;28;20131;-69
2021/03/25 00:18:19;;;;;;;37.10;23.45;;;4.80;99.70;;;;;;5087290;28;20047;-69
2021/03/25 00:20:45;;;;;;;39.78;23.92;;;4.60;99.90;;;;;;5086906;28;20064;-69
2021/03/25 00:23:12;;;;;;;35.08;22.95;;;4.60;99.90;;;;;;5087281;28;20059;-69
2021/03/25 00:25:39;;;;;;;37.15;23.48;;;4.70;99.90;;;;;;5086677;28;20096;-69
2021/03/25 00:28:06;;;;;;;36.13;23.85;;;4.70;99.90;;;;;;5085806;28;20072;-69
2021/03/25 00:30:32;;;;;;;38.45;23.55;;;4.60;99.90;;;;;;5086288;28;20064;-69
2021/03/25 00:33:01;;;;;;;41.53;24.85;;;4.50;99.90;;;;;;5086665;28;20044;-69
2021/03/25 00:35:28;;;;;;;41.72;25.58;;;4.40;99.90;;;;;;5085273;28;20091;-69
2021/03/25 00:37:55;;;;;;;38.60;26.10;;;4.50;99.90;;;;;;5086994;28;20050;-69
2021/03/25 00:40:21;;;;;;;40.30;25.83;;;4.60;99.90;;;;;;5085441;28;20067;-69
2021/03/25 00:42:47;;;;;;;40.33;23.73;;;4.60;99.90;;;;;;5084841;28;20538;-69
2021/03/25 00:45:24;;;;;;;46.40;27.83;;;4.50;99.90;;;;;;5085661;28;20050;-69
2021/03/25 00:47:50;;;;;;;45.38;27.63;;;4.50;99.90;;;;;;5073993;28;20052;-69
2021/03/25 00:50:50;;;;;;;46.88;26.90;;;4.60;99.90;;;;;;5085392;28;20044;-69
2021/03/25 00:53:23;;;;;;;39.53;26.23;;;4.70;99.90;;;;;;5085771;28;20094;-69
2021/03/25 00:55:49;;;;;;;47.67;27.45;;;4.90;99.90;;;;;;5085618;28;20120;-69
2021/03/25 00:58:15;;;;;;;41.83;26.10;;;5.00;99.90;;;;;;5085558;28;20051;-69
2021/03/25 01:00:43;;;;;;;41.92;25.98;;;5.00;99.90;;;;;;5085345;28;20132;-69
2021/03/25 01:03:12;;;;;;;44.17;27.80;;;5.00;99.90;;;;;;5085327;28;20127;-69
2021/03/25 01:05:38;;;;;;;47.03;27.70;;;5.10;99.90;;;;;;5084981;28;20127;-69
2021/03/25 01:08:04;;;;;;;41.47;25.48;;;5.20;99.90;;;;;;5085225;28;20067;-69
2021/03/25 01:10:39;;;;;;;43.58;27.08;;;5.20;99.90;;;;;;5085083;28;20092;-69
2021/03/25 01:13:22;;;;;;;41.92;25.83;;;5.10;99.90;;;;;;5085769;28;20055;-69
2021/03/25 01:15:48;;;;;;;42.45;26.73;;;5.00;99.90;;;;;;5073653;28;20040;-69
2021/03/25 01:18:14;;;;;;;43.45;26.95;;;4.90;99.90;;;;;;5085081;28;20055;-69
2021/03/25 01:20:42;;;;;;;39.90;26.27;;;4.80;99.90;;;;;;5085210;28;20040;-69
2021/03/25 01:23:09;;;;;;;36.70;24.98;;;4.70;99.90;;;;;;5085093;28;20074;-69
2021/03/25 01:25:37;;;;;;;42.13;23.95;;;4.60;99.90;;;;;;5084692;28;20041;-69
2021/03/25 01:28:05;;;;;;;38.10;23.52;;;4.50;99.90;;;;;;5084806;28;20052;-69
2021/03/25 01:30:33;;;;;;;38.35;25.70;;;4.40;99.90;;;;;;5085915;28;20068;-69
2021/03/25 01:33:00;;;;;;;41.22;25.70;;;4.40;99.90;;;;;;5084548;28;20112;-69
2021/03/25 01:35:28;;;;;;;41.60;25.90;;;4.40;99.90;;;;;;5084811;28;20497;-69
2021/03/25 01:37:54;;;;;;;39.28;25.85;;;4.50;99.90;;;;;;5084704;28;20059;-69
2021/03/25 01:40:30;;;;;;;42.38;26.40;;;4.30;99.90;;;;;;5084835;28;20057;-69
2021/03/25 01:43:29;;;;;;;43.10;28.65;;;4.30;99.90;;;;;;5084385;28;20040;-69
2021/03/25 01:45:57;;;;;;;39.88;25.23;;;4.40;99.90;;;;;;5078997;28;20040;-69
2021/03/25 01:48:35;;;;;;;47.53;28.75;;;4.40;99.90;;;;;;5085170;28;20129;-69
2021/03/25 01:51:23;;;;;;;48.17;27.35;;;4.50;99.90;;;;;;5085594;28;20049;-69
2021/03/25 01:53:57;;;;;;;44.28;27.88;;;4.60;99.90;;;;;;5085637;28;20058;-69
2021/03/25 01:56:45;;;;;;;48.22;28.35;;;4.70;99.90;;;;;;5083366;28;20079;-69
2021/03/25 01:59:35;;;;;;;46.90;27.83;;;4.80;99.90;;;;;;5084759;28;20037;-69
2021/03/25 02:02:16;;;;;;;42.67;27.35;;;4.80;99.90;;;;;;5084505;28;20083;-69
2021/03/25 02:04:59;;;;;;;46.47;28.58;;;4.80;99.90;;;;;;5071398;28;20071;-69
2021/03/25 02:07:40;;;;;;;45.10;26.80;;;4.80;99.90;;;;;;5084366;28;20048;-69
2021/03/25 02:10:24;;;;;;;46.13;28.08;;;4.80;99.90;;;;;;5084471;28;20053;-69
2021/03/25 02:13:10;;;;;;;45.55;28.17;;;4.80;99.90;;;;;;5075466;28;20135;-69
2021/03/25 02:15:47;;;;;;;41.67;27.88;;;4.80;99.90;;;;;;5085007;28;20079;-69
2021/03/25 02:18:20;;;;;;;50.40;27.55;;;4.80;99.90;;;;;;5084761;28;20108;-69
2021/03/25 02:21:14;;;;;;;48.22;28.95;;;4.90;99.90;;;;;;5084219;28;20044;-69
2021/03/25 02:24:21;;;;;;;45.47;27.10;;;4.90;99.90;;;;;;5071222;28;20045;-69
2021/03/25 02:26:57;;;;;;;45.80;28.27;;;4.90;99.90;;;;;;5063188;28;20049;-69
2021/03/25 02:29:41;;;;;;;48.55;28.45;;;4.80;99.90;;;;;;5078439;28;20049;-69
2021/03/25 02:32:13;;;;;;;46.92;29.50;;;4.70;99.90;;;;;;5073576;28;20055;-69
2021/03/25 02:34:44;;;;;;;47.20;28.23;;;4.60;99.90;;;;;;5084504;28;20067;-69
2021/03/25 02:37:24;;;;;;;44.42;28.65;;;4.60;99.90;;;;;;5085145;28;20040;-69
2021/03/25 02:39:56;;;;;;;47.38;28.35;;;4.50;99.90;;;;;;5084255;28;20056;-69
2021/03/25 02:42:31;;;;;;;47.00;27.30;;;4.50;99.90;;;;;;5084065;28;20064;-69
2021/03/25 02:45:04;;;;;;;48.28;29.35;;;4.60;99.90;;;;;;5077385;28;20053;-69
2021/03/25 02:47:33;;;;;;;48.63;29.10;;;4.60;99.90;;;;;;5091576;28;20115;-69
2021/03/25 02:50:22;;;;;;;47.35;29.88;;;4.60;99.90;;;;;;5082796;28;20040;-69
2021/03/25 02:52:53;;;;;;;61.20;32.42;;;4.80;99.90;;;;;;5084044;28;20037;-69
2021/03/25 02:55:20;;;;;;;58.53;31.48;;;4.90;99.90;;;;;;5072950;28;20052;-69
2021/03/25 02:57:54;;;;;;;54.42;31.83;;;5.00;99.90;;;;;;5081496;28;20100;-69
2021/03/25 03:00:27;;;;;;;58.38;31.65;;;5.10;99.90;;;;;;5084883;28;20193;-69
2021/03/25 03:03:03;;;;;;;52.25;29.95;;;5.10;99.90;;;;;;5084907;28;20048;-69
2021/03/25 03:05:33;;;;;;;51.42;30.52;;;5.20;99.90;;;;;;5084936;28;20122;-69
2021/03/25 03:08:12;;;;;;;51.13;30.23;;;5.20;99.90;;;;;;5088177;28;20044;-69
2021/03/25 03:10:43;;;;;;;55.17;30.60;;;5.20;99.90;;;;;;5084352;28;20049;-69
2021/03/25 03:13:13;;;;;;;57.20;30.65;;;5.20;99.90;;;;;;5088544;28;20068;-69
2021/03/25 03:15:53;;;;;;;55.42;30.67;;;5.20;99.90;;;;;;5088091;28;20051;-69
2021/03/25 03:18:34;;;;;;;;;;;5.10;99.90;;;;;;5087826;28;20075;-69
2021/03/25 03:21:06;;;;;;;53.95;30.52;;;5.10;99.90;;;;;;5087102;28;19921;-69
2021/03/25 03:23:34;;;;;;;56.05;29.33;;;5.10;99.90;;;;;;5087279;28;20045;-69
2021/03/25 03:26:04;;;;;;;52.22;29.77;;;5.10;99.90;;;;;;5088045;28;20049;-69
2021/03/25 03:28:55;;;;;;;51.30;31.00;;;5.10;99.90;;;;;;5088112;28;20049;-69
2021/03/25 03:31:26;;;;;;;51.50;30.63;;;5.10;99.90;;;;;;5087927;28;20551;-69
2021/03/25 03:33:55;;;;;;;54.63;30.70;;;4.90;99.90;;;;;;5087513;28;20127;-69
2021/03/25 03:36:24;;;;;;;50.72;29.08;;;4.90;99.90;;;;;;5087964;28;20113;-69
2021/03/25 03:39:14;;;;;;;48.88;28.85;;;4.90;99.90;;;;;;5087573;28;20083;-69
2021/03/25 03:41:48;;;;;;;53.10;29.00;;;4.90;99.90;;;;;;5073220;28;20045;-69
2021/03/25 03:44:22;;;;;;;45.17;27.33;;;5.00;99.90;;;;;;5087499;28;20060;-69
2021/03/25 03:46:49;;;;;;;47.10;27.77;;;5.10;99.90;;;;;;5087568;28;20041;-69
2021/03/25 03:49:30;;;;;;;53.58;31.23;;;4.90;99.90;;;;;;5087866;28;20044;-69
2021/03/25 03:52:37;;;;;;;57.13;31.42;;;5.00;99.90;;;;;;5087818;28;20053;-69
2021/03/25 03:55:06;;;;;;;55.58;30.73;;;5.10;99.90;;;;;;5065270;28;20064;-69
2021/03/25 03:57:53;;;;;;;47.08;28.98;;;5.10;99.90;;;;;;5064872;28;20040;-69
2021/03/25 04:00:34;;;;;;;51.75;30.60;;;5.10;99.90;;;;;;5047748;28;20111;-69
2021/03/25 04:03:37;;;;;;;47.03;29.17;;;4.90;99.90;;;;;;5063881;28;20059;-69
2021/03/25 04:06:31;;;;;;;48.10;29.38;;;4.80;99.90;;;;;;5064553;28;20047;-69
2021/03/25 04:09:20;;;;;;;50.30;30.73;;;4.80;99.90;;;;;;5046699;28;20120;-69
2021/03/25 04:11:53;;;;;;;55.90;32.83;;;4.80;99.90;;;;;;5064843;28;20072;-69
2021/03/25 04:14:35;;;;;;;56.90;32.00;;;4.90;99.90;;;;;;5063914;28;20068;-69
2021/03/25 04:17:04;;;;;;;53.92;31.77;;;4.90;99.90;;;;;;5063254;28;20052;-69
2021/03/25 04:19:43;;;;;;;53.42;31.17;;;5.00;99.90;;;;;;5063736;28;20112;-69
2021/03/25 04:22:18;;;;;;;53.33;33.03;;;5.10;99.90;;;;;;5061025;28;20049;-69
2021/03/25 04:24:51;;;;;;;51.80;32.00;;;5.10;99.90;;;;;;5065925;28;20056;-69
2021/03/25 04:27:39;;;;;;;55.88;33.10;;;5.20;99.90;;;;;;5086277;28;20126;-71
2021/03/25 04:30:14;;;;;;;61.00;33.38;;;5.30;99.90;;;;;;5085700;28;20049;-69
2021/03/25 04:32:43;;;;;;;61.70;35.58;;;5.50;99.90;;;;;;5086732;28;20108;-69
2021/03/25 04:35:09;;;;;;;52.47;32.72;;;5.60;99.90;;;;;;5072652;28;20055;-69
2021/03/25 04:37:36;;;;;;;59.70;32.17;;;5.60;99.90;;;;;;5085607;28;20044;-69
2021/03/25 04:40:07;;;;;;;60.63;34.92;;;5.70;99.90;;;;;;5085544;28;20056;-69
2021/03/25 04:42:33;;;;;;;56.80;32.75;;;5.80;99.90;;;;;;5081198;28;20134;-69
2021/03/25 04:45:22;;;;;;;60.40;33.90;;;5.90;99.90;;;;;;5085338;28;20096;-69
2021/03/25 04:47:51;;;;;;;57.22;32.70;;;6.00;99.90;;;;;;5081438;28;20060;-69
2021/03/25 04:50:23;;;;;;;57.05;32.38;;;6.00;99.90;;;;;;5085673;28;20052;-71
2021/03/25 04:52:49;;;;;;;54.63;31.45;;;6.00;99.90;;;;;;5085883;28;20066;-69
2021/03/25 04:55:23;;;;;;;54.25;32.42;;;5.90;99.90;;;;;;5076135;28;20045;-69
2021/03/25 04:57:56;;;;;;;50.85;30.65;;;5.90;99.90;;;;;;5068375;28;20067;-69
2021/03/25 05:00:31;;;;;;;51.33;31.33;;;5.70;99.90;;;;;;5085208;28;20117;-69
2021/03/25 05:02:59;;;;;;;56.45;31.90;;;5.50;99.90;;;;;;5085196;28;20048;-69
2021/03/25 05:05:27;;;;;;;50.63;31.73;;;5.40;99.90;;;;;;5084031;28;20090;-69
2021/03/25 05:08:17;;;;;;;53.47;31.88;;;5.20;99.90;;;;;;5085258;28;20386;-69
2021/03/25 05:10:45;;;;;;;56.17;32.42;;;5.10;99.90;;;;;;5085115;28;20048;-69
2021/03/25 05:13:28;;;;;;;52.67;31.83;;;4.90;99.90;;;;;;5085202;28;20040;-69
2021/03/25 05:16:33;;;;;;;55.13;32.70;;;4.80;99.90;;;;;;5085083;28;20040;-69
2021/03/25 05:19:17;;;;;;;51.47;30.38;;;4.70;99.90;;;;;;5049248;28;20052;-69
2021/03/25 05:22:01;;;;;;;60.95;34.33;;;4.70;99.90;;;;;;5079223;28;20048;-69
2021/03/25 05:24:57;;;;;;;59.97;34.35;;;4.70;99.90;;;;;;5085036;28;20048;-69
2021/03/25 05:27:46;;;;;;;59.83;32.88;;;4.90;99.90;;;;;;5083508;28;20056;-69
2021/03/25 05:30:23;;;;;;;60.90;34.42;;;4.90;99.90;;;;;;5083555;28;20413;-69
2021/03/25 05:32:52;;;;;;;62.40;34.72;;;4.80;99.90;;;;;;5084711;28;20041;-69
2021/03/25 05:35:23;;;;;;;61.30;35.93;;;4.80;99.90;;;;;;5086880;28;20048;-69
2021/03/25 05:37:49;;;;;;;;;;;4.90;99.90;;;;;;5084290;28;20302;-69
2021/03/25 05:40:20;;;;;;;56.13;33.17;;;4.80;99.90;;;;;;5083581;28;20000;-69
2021/03/25 05:43:11;;;;;;;55.72;31.65;;;4.70;99.90;;;;;;5071390;28;20046;-69
2021/03/25 05:45:47;;;;;;;56.13;31.85;;;4.70;99.90;;;;;;5081805;28;20044;-69
2021/03/25 05:48:28;;;;;;;51.78;29.85;;;4.60;99.90;;;;;;5080615;28;20067;-70
2021/03/25 05:51:25;;;;;;;53.17;31.33;;;4.50;99.90;;;;;;5069439;28;20047;-68
2021/03/25 05:54:12;;;;;;;48.80;29.77;;;4.50;99.90;;;;;;5075993;28;20045;-70
2021/03/25 05:57:29;;;;;;;55.15;31.02;;;4.40;99.90;;;;;;5071444;28;20056;-69
2021/03/25 06:00:09;;;;;;;60.13;32.35;;;4.40;99.90;;;;;;5062864;28;20550;-69
2021/03/25 06:02:48;;;;;;;59.70;32.30;;;4.40;99.90;;;;;;5062134;28;20072;-69
2021/03/25 06:05:15;;;;;;;51.05;30.85;;;4.50;99.90;;;;;;5063550;28;20045;-69
2021/03/25 06:07:41;;;;;;;56.45;32.97;;;4.50;99.90;;;;;;5064459;28;20068;-69
2021/03/25 06:10:19;;;;;;;57.17;34.30;;;4.60;99.90;;;;;;5063522;28;20064;-69
2021/03/25 06:12:57;;;;;;;64.53;35.05;;;4.70;99.90;;;;;;5062471;28;20056;-69
2021/03/25 06:15:53;;;;;;;67.55;37.15;;;4.70;99.90;;;;;;5064499;28;20055;-67
2021/03/25 06:18:57;;;;;;;70.20;38.80;;;4.90;99.90;;;;;;5064286;28;20082;-69
2021/03/25 06:21:30;;;;;;;64.35;36.72;;;5.10;99.90;;;;;;5064549;28;20079;-67
2021/03/25 06:24:28;;;;;;;68.65;39.28;;;5.30;99.90;;;;;;5063176;28;20045;-67
2021/03/25 06:27:34;;;;;;;73.18;39.17;;;5.40;99.90;;;;;;5050887;28;20042;-67
2021/03/25 06:30:10;;;;;;;67.97;36.03;;;5.50;99.90;;;;;;5048163;28;20061;-69
2021/03/25 06:32:59;;;;;;;63.10;36.85;;;5.60;99.90;;;;;;5061941;28;20049;-68
2021/03/25 06:35:29;;;;;;;74.53;40.83;;;5.70;99.90;;;;;;5041199;28;20048;-68
2021/03/25 06:38:16;;;;;;;77.87;39.70;;;5.80;99.90;;;;;;5059603;28;20295;-68
2021/03/25 06:40:50;;;;;;;72.80;40.28;;;6.00;99.90;;;;;;5078545;28;20312;-68
2021/03/25 06:43:24;;;;;;;74.85;38.53;;;6.00;99.90;;;;;;5084417;28;20056;-68
2021/03/25 06:45:59;;;;;;;68.50;37.33;;;6.00;99.90;;;;;;5073519;28;20052;-68
2021/03/25 06:48:44;;;;;;;69.95;38.63;;;6.10;99.90;;;;;;5065012;28;20048;-68
2021/03/25 06:51:34;;;;;;;66.20;38.38;;;6.10;99.90;;;;;;5079505;28;20040;-68
2021/03/25 06:54:11;;;;;;;;;;;6.10;99.90;;;;;;5041643;28;20057;-68
2021/03/25 06:56:43;;;;;;;65.43;38.00;;;6.20;99.90;;;;;;5071749;28;19972;-68
2021/03/25 06:59:17;;;;;;;66.25;38.05;;;6.30;99.90;;;;;;5094578;28;20064;-69
2021/03/25 07:01:46;;;;;;;67.03;38.67;;;6.40;99.90;;;;;;5070631;28;20142;-69
2021/03/25 07:04:45;;;;;;;67.30;39.20;;;6.50;99.90;;;;;;5077993;28;20102;-68
2021/03/25 07:07:20;;;;;;;67.78;37.70;;;6.60;99.90;;;;;;5065319;28;20120;-69
2021/03/25 07:09:47;;;;;;;70.45;39.03;;;6.70;99.90;;;;;;5058301;28;20087;-68
2021/03/25 07:12:22;;;;;;;66.22;38.80;;;6.80;99.90;;;;;;5075728;28;20547;-68
2021/03/25 07:14:50;;;;;;;70.38;39.95;;;7.00;99.90;;;;;;5086960;28;20036;-69
2021/03/25 07:17:22;;;;;;;68.50;39.00;;;7.00;99.90;;;;;;5076277;28;20052;-68
2021/03/25 07:19:49;;;;;;;71.38;39.53;;;7.10;99.90;;;;;;5086077;28;20059;-68
2021/03/25 07:22:24;;;;;;;76.82;42.75;;;7.30;99.90;;;;;;5065046;28;20124;-68
2021/03/25 07:24:52;;;;;;;74.07;39.15;;;7.40;99.90;;;;;;5068603;28;20051;-69
2021/03/25 07:27:19;;;;;;;74.38;41.40;;;7.50;99.90;;;;;;5067856;28;20047;-69
2021/03/25 07:30:16;;;;;;;74.90;43.08;;;7.60;99.90;;;;;;5070163;28;20564;-69
2021/03/25 07:32:57;;;;;;;69.22;41.05;;;7.70;99.80;;;;;;5066097;28;20099;-69
2021/03/25 07:35:29;;;;;;;74.65;42.45;;;7.80;99.80;;;;;;5073501;28;20049;-69
2021/03/25 07:37:56;;;;;;;72.10;39.72;;;7.90;99.90;;;;;;5080093;28;20051;-69
2021/03/25 07:40:38;;;;;;;77.20;43.90;;;7.90;99.60;;;;;;5082528;28;20360;-69
2021/03/25 07:43:15;;;;;;;69.65;40.28;;;8.00;99.90;;;;;;5067982;28;20445;-70
2021/03/25 07:45:41;;;;;;;70.47;39.97;;;8.00;99.40;;;;;;5079527;28;20055;-69
2021/03/25 07:48:16;;;;;;;76.13;42.63;;;8.10;98.90;;;;;;5081515;28;20056;-69
2021/03/25 07:50:42;;;;;;;71.07;41.63;;;8.20;99.20;;;;;;5081575;28;20136;-69
2021/03/25 07:53:27;;;;;;;69.75;41.03;;;8.30;98.70;;;;;;5081137;28;20044;-69
2021/03/25 07:56:22;;;;;;;70.00;40.17;;;8.30;98.40;;;;;;5079212;28;20053;-69
2021/03/25 07:58:48;;;;;;;68.63;39.72;;;8.40;98.90;;;;;;5039114;28;20048;-69
2021/03/25 08:01:20;;;;;;;67.47;38.53;;;8.50;98.40;;;;;;5055821;28;20168;-69
2021/03/25 08:03:52;;;;;;;62.35;36.72;;;8.60;97.90;;;;;;5044293;28;20049;-68
2021/03/25 08:06:25;;;;;;;55.88;34.13;;;8.90;97.70;;;;;;5057288;28;20152;-71
2021/03/25 08:09:12;;;;;;;60.00;35.50;;;9.30;97.20;;;;;;5036366;28;20042;-70
2021/03/25 08:12:22;;;;;;;57.00;34.42;;;9.70;95.80;;;;;;5047677;28;20045;-67
2021/03/25 08:14:50;;;;;;;61.15;36.05;;;10.00;94.30;;;;;;5013435;28;20053;-72
2021/03/25 08:17:34;;;;;;;61.17;37.55;;;9.70;94.80;;;;;;5001903;28;20127;-75
2021/03/25 08:20:12;;;;;;;62.63;38.47;;;9.50;95.30;;;;;;5004335;28;20058;-72
2021/03/25 08:22:59;;;;;;;58.58;37.60;;;9.30;95.70;;;;;;5000685;28;20057;-73
2021/03/25 08:25:46;;;;;;;59.45;36.30;;;9.20;95.90;;;;;;5015667;28;20259;-72
2021/03/25 08:28:35;;;;;;;60.60;36.58;;;9.10;95.90;;;;;;4987885;28;20145;-73
2021/03/25 08:31:16;;;;;;;59.83;34.58;;;9.10;96.20;;;;;;4997782;28;20057;-76
2021/03/25 08:34:03;;;;;;;58.00;36.50;;;9.10;96.00;;;;;;4988233;28;20358;-75
2021/03/25 08:36:56;;;;;;;63.22;36.80;;;9.10;96.60;;;;;;5010512;28;20054;-70
2021/03/25 08:39:49;;;;;;;60.75;36.45;;;9.20;96.20;;;;;;4987911;28;20034;-69
2021/03/25 08:42:48;;;;;;;59.70;35.08;;;9.20;95.90;;;;;;4998860;28;20053;-69
2021/03/25 08:45:26;;;;;;;57.00;34.35;;;9.40;95.90;;;;;;5021156;28;20081;-71
2021/03/25 08:48:03;;;;;;;66.05;37.38;;;9.40;95.30;;;;;;5069158;28;20052;-72
2021/03/25 08:50:40;;;;;;;65.93;39.28;;;9.40;95.50;;;;;;5072699;28;20048;-71
2021/03/25 08:53:27;;;;;;;63.92;38.38;;;9.50;95.80;;;;;;5053744;28;20522;-72
2021/03/25 08:55:55;;;;;;;72.20;38.60;;;9.50;95.50;;;;;;5068376;28;20063;-71
2021/03/25 08:58:26;;;;;;;67.45;37.30;;;9.50;96.00;;;;;;5064525;28;20048;-70
2021/03/25 09:00:59;;;;;;;62.47;38.20;;;9.60;96.00;;;;;;5066371;28;20520;-70
2021/03/25 09:03:33;;;;;;;65.97;37.55;;;9.60;96.00;;;;;;5052670;28;20119;-70
2021/03/25 09:06:07;;;;;;;68.07;38.85;;;9.70;95.80;;;;;;5062306;28;20077;-71
2021/03/25 09:08:39;;;;;;;67.50;39.80;;;9.70;95.40;;;;;;5067563;28;20139;-71
2021/03/25 09:11:09;;;;;;;61.25;38.08;;;9.80;95.20;;;;;;5065322;28;20048;-71
2021/03/25 09:13:43;;;;;;;64.15;37.50;;;9.90;95.00;;;;;;5051866;28;20045;-70
2021/03/25 09:16:17;;;;;;;64.95;38.42;;;9.90;94.80;;;;;;5065027;28;20052;-71
2021/03/25 09:18:45;;;;;;;57.55;36.17;;;10.10;94.70;;;;;;5073074;28;20048;-70
2021/03/25 09:21:27;;;;;;;69.40;37.83;;;10.10;94.10;;;;;;5076388;28;20626;-71
2021/03/25 09:23:59;;;;;;;64.93;36.58;;;10.20;94.30;;;;;;5076242;28;20048;-71
2021/03/25 09:26:25;;;;;;;60.47;35.65;;;10.40;94.00;;;;;;5098472;28;20173;-70
2021/03/25 09:28:59;;;;;;;57.40;34.83;;;10.40;93.80;;;;;;5085548;28;20083;-70
2021/03/25 09:31:31;;;;;;;59.50;35.58;;;10.50;93.40;;;;;;5096967;28;20044;-71
2021/03/25 09:33:58;;;;;;;62.70;36.97;;;10.60;93.70;;;;;;5085513;28;20048;-70
2021/03/25 09:36:27;;;;;;;53.75;32.28;;;10.70;93.80;;;;;;5078710;28;20048;-70
2021/03/25 09:38:58;;;;;;;53.22;32.33;;;10.70;92.60;;;;;;5085201;28;20040;-70
2021/03/25 09:41:28;;;;;;;52.00;31.10;;;10.90;92.50;;;;;;5096386;28;20075;-70
2021/03/25 09:44:15;;;;;;;51.42;30.85;;;10.90;92.00;;;;;;5087089;28;20054;-71
2021/03/25 09:46:51;;;;;;;51.47;30.83;;;11.10;91.60;;;;;;5092865;28;20056;-71
2021/03/25 09:52:14;;;;;;;48.47;30.00;;;11.20;91.20;;;;;;5097037;28;20039;-71
2021/03/25 09:54:55;;;;;;;43.85;28.52;;;11.20;92.00;;;;;;5069064;28;20721;-71
2021/03/25 09:57:34;;;;;;;42.45;26.48;;;11.40;91.10;;;;;;5088829;28;20132;-71
2021/03/25 10:00:12;;;;;;;39.88;24.63;;;11.50;90.70;;;;;;5098032;28;20302;-71
2021/03/25 10:02:37;;;;;;;38.03;25.05;;;11.70;88.90;;;;;;5088222;28;20064;-71
2021/03/25 10:05:28;;;;;;;41.20;24.95;;;11.50;89.90;;;;;;5097410;28;20048;-70
2021/03/25 10:08:08;;;;;;;38.50;25.50;;;11.30;90.40;;;;;;5085608;28;20530;-71
2021/03/25 10:10:40;;;;;;;45.72;27.40;;;11.20;90.50;;;;;;5061254;28;20456;-71
2021/03/25 10:13:06;;;;;;;43.42;27.30;;;11.30;90.60;;;;;;5088119;28;20094;-71
2021/03/25 10:15:50;;;;;;;43.22;25.15;;;11.50;91.60;;;;;;5096120;28;20661;-71
2021/03/25 10:18:16;;;;;;;41.63;27.80;;;11.50;90.50;;;;;;5092216;28;20048;-71
2021/03/25 10:20:53;;;;;;;44.58;27.92;;;11.60;90.00;;;;;;5095923;28;20112;-70
2021/03/25 10:23:23;;;;;;;38.83;23.23;;;11.60;90.60;;;;;;5089895;28;20081;-70
2021/03/25 10:26:04;;;;;;;40.47;22.83;;;11.70;89.60;;;;;;5100400;28;20082;-70
2021/03/25 10:28:33;;;;;;;30.90;20.77;;;11.80;86.90;;;;;;5091260;28;20328;-70
2021/03/25 10:31:10;;;;;;;38.47;22.52;;;11.80;88.70;;;;;;5102670;28;20074;-70
2021/03/25 10:33:36;;;;;;;38.30;22.70;;;12.00;89.00;;;;;;5089111;28;20051;-70
2021/03/25 10:36:06;;;;;;;32.92;20.30;;;12.20;87.20;;;;;;5099708;28;20039;-71
2021/03/25 10:38:44;;;;;;;34.25;20.30;;;12.40;85.00;;;;;;5089474;28;20428;-70
2021/03/25 10:41:23;;;;;;;42.03;24.38;;;12.30;85.00;;;;;;5101038;28;20040;-71
2021/03/25 10:43:52;;;;;;;43.17;27.40;;;12.30;86.90;;;;;;5089773;28;20044;-71
2021/03/25 10:46:36;;;;;;;38.88;26.73;;;12.40;88.30;;;;;;5082438;28;20153;-70
2021/03/25 10:49:09;;;;;;;41.78;25.63;;;12.60;87.80;;;;;;5074804;28;20048;-71
2021/03/25 10:51:41;;;;;;;44.08;26.00;;;12.50;86.70;;;;;;5070314;28;20068;-70
2021/03/25 10:54:29;;;;;;;42.78;26.38;;;12.60;85.40;;;;;;5079691;28;20052;-71
2021/03/25 10:57:09;;;;;;;41.50;28.42;;;12.70;84.80;;;;;;5098892;28;20032;-70
2021/03/25 10:59:37;;;;;;;44.90;26.83;;;13.00;84.30;;;;;;5072026;28;20048;-70
2021/03/25 11:02:18;;;;;;;41.13;26.40;;;13.00;81.20;;;;;;5100860;28;20098;-71
2021/03/25 11:04:44;;;;;;;40.28;26.73;;;13.10;83.00;;;;;;5080779;28;20054;-71
2021/03/25 11:07:10;;;;;;;41.85;23.10;;;13.20;81.70;;;;;;5099560;28;20067;-71
2021/03/25 11:09:36;;;;;;;40.28;25.38;;;13.70;78.10;;;;;;5086385;28;20516;-70
2021/03/25 11:12:11;;;;;;;42.22;28.10;;;13.80;76.80;;;;;;5101616;28;20044;-71
2021/03/25 11:14:44;;;;;;;44.72;28.23;;;13.50;78.90;;;;;;5086386;28;20039;-71
2021/03/25 11:17:43;;;;;;;42.28;27.05;;;13.30;79.80;;;;;;5078808;28;20047;-70
2021/03/25 11:20:16;;;;;;;45.20;30.80;;;13.30;79.80;;;;;;5006088;28;20565;-68
2021/03/25 11:22:43;;;;;;;48.92;32.40;;;13.60;81.00;;;;;;5017650;28;20080;-69
2021/03/25 11:25:16;;;;;;;53.63;33.83;;;13.60;79.80;;;;;;5028931;28;20041;-69
2021/03/25 11:27:43;;;;;;;54.42;33.03;;;13.60;81.50;;;;;;5012055;28;20046;-69
2021/03/25 11:30:36;;;;;;;49.47;31.10;;;13.60;82.00;;;;;;5027815;28;20115;-70
2021/03/25 11:33:20;;;;;;;47.25;32.00;;;13.70;82.40;;;;;;5011222;28;20141;-70
2021/03/25 11:35:46;;;;;;;50.17;31.52;;;14.00;79.70;;;;;;5022016;28;20088;-69
2021/03/25 11:38:24;;;;;;;48.92;30.83;;;13.70;80.00;;;;;;5008386;28;20079;-69
2021/03/25 11:40:51;;;;;;;47.85;30.52;;;13.80;79.60;;;;;;5030098;28;20076;-70
2021/03/25 11:43:20;;;;;;;52.50;32.55;;;13.80;79.50;;;;;;5019650;28;20111;-69
2021/03/25 11:45:47;;;;;;;44.47;31.77;;;13.70;81.50;;;;;;5020741;28;20039;-69
2021/03/25 11:48:19;;;;;;;48.72;31.15;;;13.70;81.10;;;;;;5010073;28;20064;-69
2021/03/25 11:50:48;;;;;;;49.08;31.90;;;13.80;82.30;;;;;;5018041;28;20045;-69
2021/03/25 11:53:38;;;;;;;41.17;28.40;;;13.80;84.30;;;;;;5007331;28;20046;-70
2021/03/25 11:56:05;;;;;;;41.03;26.88;;;13.60;80.40;;;;;;5061302;28;20052;-70
2021/03/25 11:58:31;;;;;;;38.33;25.38;;;13.60;79.90;;;;;;5082636;28;20064;-69
2021/03/25 12:01:04;;;;;;;37.58;26.15;;;13.70;78.70;;;;;;5077516;28;20062;-68
2021/03/25 12:03:45;;;;;;;35.60;22.70;;;13.70;77.50;;;;;;5049728;28;20059;-68
2021/03/25 12:06:44;;;;;;;34.22;22.98;;;13.70;78.50;;;;;;5072151;28;20078;-69
2021/03/25 12:09:17;;;;;;;33.65;21.40;;;13.80;80.20;;;;;;5081859;28;20074;-68
2021/03/25 12:11:48;;;;;;;33.97;21.27;;;13.70;76.80;;;;;;5093451;28;20072;-68
2021/03/25 12:14:16;;;;;;;33.40;22.60;;;13.80;78.00;;;;;;5083369;28;20108;-69
2021/03/25 12:16:42;;;;;;;31.58;22.50;;;13.90;79.00;;;;;;5081774;28;20029;-68
2021/03/25 12:19:09;;;;;;;33.63;22.98;;;14.00;79.60;;;;;;5083794;28;20048;-68
2021/03/25 12:21:38;;;;;;;34.05;22.98;;;13.90;78.40;;;;;;5092296;28;20046;-69
2021/03/25 12:24:06;;;;;;;32.97;23.37;;;13.80;80.70;;;;;;5078634;28;20049;-68
2021/03/25 12:26:32;;;;;;;36.50;24.30;;;13.70;78.80;;;;;;5089602;28;20036;-69
2021/03/25 12:29:03;;;;;;;35.97;24.63;;;13.70;78.90;;;;;;5075080;28;20048;-69
2021/03/25 12:31:32;;;;;;;34.50;22.92;;;13.60;80.90;;;;;;5089698;28;20106;-69
2021/03/25 12:33:58;;;;;;;37.00;24.35;;;13.50;79.80;;;;;;5075549;28;20064;-69
2021/03/25 12:36:25;;;;;;;34.33;23.80;;;13.50;80.00;;;;;;5084262;28;20039;-69
2021/03/25 12:38:52;;;;;;;37.28;24.23;;;13.60;79.90;;;;;;5060490;28;20040;-70
2021/03/25 12:41:22;;;;;;;39.42;24.77;;;13.50;80.40;;;;;;5089783;28;20071;-70
2021/03/25 12:43:48;;;;;;;30.88;22.00;;;13.50;82.10;;;;;;5078345;28;20042;-69
2021/03/25 12:46:14;;;;;;;30.70;20.13;;;13.60;82.20;;;;;;5090565;28;20048;-70
2021/03/25 12:48:40;;;;;;;34.33;22.92;;;13.60;80.40;;;;;;5087824;28;20067;-69
2021/03/25 12:51:08;;;;;;;33.60;24.30;;;13.60;82.90;;;;;;5099146;28;20055;-69
2021/03/25 12:53:34;;;;;;;42.20;24.80;;;13.60;84.10;;;;;;5089354;28;20040;-69
2021/03/25 12:56:02;;;;;;;35.63;25.38;;;13.60;84.30;;;;;;5099827;28;20042;-69
2021/03/25 12:58:35;;;;;;;38.55;24.08;;;13.60;84.10;;;;;;5089144;28;20044;-69
2021/03/25 13:01:14;;;;;;;37.60;25.85;;;13.60;85.40;;;;;;5099388;28;20567;-70
2021/03/25 13:03:45;;;;;;;36.43;25.77;;;13.70;83.80;;;;;;5087207;28;20044;-70
2021/03/25 13:06:12;;;;;;;36.92;24.40;;;13.90;85.30;;;;;;5099877;28;20036;-69
2021/03/25 13:08:39;;;;;;;37.58;25.55;;;13.90;81.10;;;;;;5071049;28;20131;-70
2021/03/25 13:11:07;;;;;;;36.60;24.33;;;13.80;82.30;;;;;;5081548;28;20059;-70
2021/03/25 13:13:33;;;;;;;38.05;24.45;;;13.70;83.10;;;;;;5091038;28;20081;-70
2021/03/25 13:16:00;;;;;;;33.92;23.42;;;13.60;83.40;;;;;;5100540;28;20200;-70
2021/03/25 13:18:26;;;;;;;34.22;23.10;;;13.60;81.10;;;;;;5091207;28;20185;-70
2021/03/25 13:20:54;;;;;;;36.50;25.02;;;13.60;81.90;;;;;;5098680;28;20043;-70